Terminal Aerodrome Forecast
Issued by NWS Topeka, KS

Home | Current Version | Previous Version | Text Only | Print | Product List | Glossary On
Versions: 1 2 3 4 5 6 7 8 9 10 11 12 13 14 15 16 17 18 19 20 21 22 23 24 25 26 27 28 29
037
FTUS43 KTOP 201555 AAB
TAFTOP
TAF AMD
KTOP 201555Z 2016/2112 08004KT 1/4SM FG VV003
     FM201830 11006KT 2SM BR OVC008
     FM202300 13006KT 5SM BR OVC005
     FM210300 17005KT P6SM BKN025
     FM210700 19005KT P6SM BKN007=

USA.gov is the U.S. government's official web portal to all federal, state and local government web resources and services.